Marco, Indiana
Current Conditions -  °F | °C
As of 7:15 PM on Sunday 25 Jan 2015 (Local Time) from KDCY Reporting Station
Drizzle Drizzle  
Wind Chill: 39°   Ceiling: 2600
Heat Index: 39°   Visibility: 4mi
Dew Point: 36°   Wind: 3mph
Humidity: 87%   Direction: 30°NNE
Pressure: 29.67"   Gusts: NA
Location:  38.9575°N, 87.1158°W
Report Text: KDCY 260015Z AUTO 03003KT 4SM DZ SCT007 BKN026 OVC036 04/02 A2967 RMK AO2 T00400020
Loading
Personal Weather Stations






























Interactive Weather Map New forecast layout! Learn more

10-Day Weather Forecast

Advertisements
Track Severe Weather on mobile